createdAt,value
2022-10-12T00:00:38.342Z,7.96
2022-10-12T00:03:06.082Z,7.92
2022-10-12T00:05:35.101Z,7.89
2022-10-12T00:08:02.762Z,7.86
2022-10-12T00:10:30.473Z,7.85
2022-10-12T00:12:58.202Z,7.83
2022-10-12T00:15:25.912Z,7.82
2022-10-12T00:17:54.025Z,7.82
2022-10-12T00:20:21.675Z,7.76
2022-10-12T00:22:50.702Z,7.76
2022-10-12T00:25:18.566Z,7.75
2022-10-12T00:27:46.827Z,7.73
2022-10-12T00:30:14.721Z,7.71
2022-10-12T00:32:42.375Z,7.69
2022-10-12T00:35:10.240Z,7.68
2022-10-12T00:37:38.237Z,7.66
2022-10-12T00:40:08.933Z,7.64
2022-10-12T00:42:36.638Z,7.63
2022-10-12T00:45:04.565Z,7.60
2022-10-12T00:47:34.857Z,7.58
2022-10-12T00:50:10.805Z,7.56
2022-10-12T00:52:43.914Z,7.54
2022-10-12T00:55:18.842Z,7.54
2022-10-12T00:57:47.606Z,7.53
2022-10-12T01:00:16.825Z,7.49
2022-10-12T01:02:45.056Z,7.49
2022-10-12T01:05:13.330Z,7.47
2022-10-12T01:07:41.659Z,7.44
2022-10-12T01:10:10.227Z,7.42
2022-10-12T01:12:41.816Z,7.40
2022-10-12T01:15:11.219Z,7.38
2022-10-12T01:17:45.999Z,7.38
2022-10-12T01:20:44.839Z,7.37
2022-10-12T01:23:32.959Z,7.35
2022-10-12T01:26:23.481Z,7.32
2022-10-12T01:28:59.951Z,7.31
2022-10-12T01:31:36.037Z,7.30
2022-10-12T01:34:10.806Z,7.31
2022-10-12T01:36:42.172Z,7.25
2022-10-12T01:39:16.805Z,7.24
2022-10-12T01:41:48.467Z,7.22
2022-10-12T01:44:22.241Z,7.22
2022-10-12T01:46:52.544Z,7.25
2022-10-12T01:49:24.127Z,7.25
2022-10-12T01:52:03.799Z,7.27
2022-10-12T01:54:43.298Z,7.30
2022-10-12T01:57:19.606Z,7.31
2022-10-12T01:59:56.304Z,7.34
2022-10-12T02:02:31.457Z,7.35
2022-10-12T02:05:04.640Z,7.36
2022-10-12T02:07:41.590Z,7.35
2022-10-12T02:10:15.817Z,7.37
2022-10-12T02:12:46.532Z,7.37
2022-10-12T02:15:15.744Z,7.37
2022-10-12T02:17:49.091Z,7.38
2022-10-12T02:20:19.353Z,7.36
2022-10-12T02:22:49.903Z,7.33
2022-10-12T02:25:21.535Z,7.29
2022-10-12T02:27:55.465Z,7.28
2022-10-12T02:30:23.203Z,7.27
2022-10-12T02:32:57.903Z,7.24
2022-10-12T02:35:30.959Z,7.20
2022-10-12T02:38:04.519Z,7.20
2022-10-12T02:40:38.011Z,7.17
2022-10-12T02:43:11.501Z,7.14
2022-10-12T02:45:43.178Z,7.14
2022-10-12T02:48:17.216Z,7.13
2022-10-12T02:50:45.955Z,7.12
2022-10-12T02:53:14.018Z,7.09
2022-10-12T02:55:48.821Z,7.08
2022-10-12T02:58:16.833Z,7.05
2022-10-12T03:00:44.557Z,7.02
2022-10-12T03:03:13.819Z,6.99
2022-10-12T03:05:41.521Z,6.97
2022-10-12T03:08:09.226Z,6.98
2022-10-12T03:10:36.934Z,6.97
2022-10-12T03:13:04.612Z,6.97
2022-10-12T03:15:32.407Z,6.95
2022-10-12T03:18:00.049Z,6.92
2022-10-12T03:20:29.360Z,6.89
2022-10-12T03:22:57.894Z,6.89
2022-10-12T03:25:25.656Z,6.88
2022-10-12T03:27:53.302Z,6.85
2022-10-12T03:30:21.077Z,6.84
2022-10-12T03:32:48.746Z,6.85
2022-10-12T03:35:16.606Z,6.84
2022-10-12T03:37:45.592Z,6.84
2022-10-12T03:40:13.989Z,6.82
2022-10-12T03:42:41.680Z,6.82
2022-10-12T03:45:10.282Z,6.84
2022-10-12T03:47:38.402Z,6.84
2022-10-12T03:50:07.401Z,6.88
2022-10-12T03:52:35.202Z,6.89
2022-10-12T03:55:04.703Z,6.92
2022-10-12T03:57:32.466Z,6.95
2022-10-12T04:00:00.141Z,6.97
2022-10-12T04:02:27.814Z,6.97
2022-10-12T04:04:55.426Z,6.96
2022-10-12T04:07:23.091Z,6.99
2022-10-12T04:09:50.787Z,6.98
2022-10-12T04:12:19.868Z,6.98
2022-10-12T04:14:47.521Z,7.01
2022-10-12T04:17:16.856Z,7.02
2022-10-12T04:19:44.570Z,7.04
2022-10-12T04:22:12.496Z,7.06
2022-10-12T04:24:40.165Z,7.07
2022-10-12T04:27:07.860Z,7.07
2022-10-12T04:29:37.137Z,7.06
2022-10-12T04:32:08.790Z,7.04
2022-10-12T04:34:39.339Z,7.03
2022-10-12T04:37:07.058Z,7.01
2022-10-12T04:39:34.764Z,7.00
2022-10-12T04:42:02.430Z,7.00
2022-10-12T04:44:32.359Z,7.01
2022-10-12T04:47:01.724Z,7.00
2022-10-12T04:49:29.420Z,7.00
2022-10-12T04:51:57.163Z,6.98
2022-10-12T04:54:24.917Z,6.98
2022-10-12T04:56:52.596Z,6.98
2022-10-12T04:59:20.267Z,6.97
2022-10-12T05:01:48.072Z,6.95
2022-10-12T05:04:17.287Z,6.96
2022-10-12T05:06:45.022Z,6.87
2022-10-12T05:09:16.025Z,6.85
2022-10-12T05:11:44.946Z,6.84
2022-10-12T05:14:12.821Z,6.81
2022-10-12T05:16:40.490Z,6.79
2022-10-12T05:19:08.290Z,6.78
2022-10-12T05:21:37.542Z,6.77
2022-10-12T05:24:05.638Z,6.74
2022-10-12T05:26:33.305Z,6.70
2022-10-12T05:29:01.126Z,6.67
2022-10-12T05:31:29.039Z,6.65
2022-10-12T05:33:56.671Z,6.64
2022-10-12T05:36:24.307Z,6.63
2022-10-12T05:38:53.347Z,6.58
2022-10-12T05:41:21.024Z,6.56
2022-10-12T05:43:48.860Z,6.54
2022-10-12T05:46:16.530Z,6.53
2022-10-12T05:48:44.312Z,6.53
2022-10-12T05:51:12.226Z,6.51
2022-10-12T05:53:39.897Z,6.51
2022-10-12T05:56:09.389Z,6.51
2022-10-12T05:58:37.088Z,6.51
2022-10-12T06:01:08.628Z,6.52
2022-10-12T06:03:36.622Z,6.50
2022-10-12T06:06:06.439Z,6.49
2022-10-12T06:08:35.186Z,6.50
2022-10-12T06:11:03.246Z,6.49
2022-10-12T06:13:32.378Z,6.50
2022-10-12T06:16:00.066Z,6.49
2022-10-12T06:18:27.767Z,6.49
2022-10-12T06:23:44.475Z,6.49
2022-10-12T06:26:12.185Z,6.51
2022-10-12T06:28:41.321Z,6.53
2022-10-12T06:31:09.099Z,6.54
2022-10-12T06:33:37.090Z,6.57
2022-10-12T06:36:04.964Z,6.61
2022-10-12T06:38:32.659Z,6.64
2022-10-12T06:41:00.388Z,6.68
2022-10-12T06:43:28.178Z,6.72
2022-10-12T06:46:00.703Z,6.75
2022-10-12T06:48:28.516Z,6.78
2022-10-12T06:50:56.206Z,6.83
2022-10-12T06:53:25.482Z,6.85
2022-10-12T06:55:53.194Z,6.93
2022-10-12T06:58:20.882Z,7.02
2022-10-12T07:00:48.558Z,7.09
2022-10-12T07:03:17.767Z,7.16
2022-10-12T07:05:47.252Z,7.25
2022-10-12T07:08:15.051Z,7.35
2022-10-12T07:10:42.756Z,7.42
2022-10-12T07:13:10.422Z,7.53
2022-10-12T07:15:38.129Z,7.62
2022-10-12T07:18:05.876Z,7.74
2022-10-12T07:20:34.935Z,7.85
2022-10-12T07:23:02.601Z,8.02
2022-10-12T07:25:30.757Z,8.14
2022-10-12T07:27:58.457Z,8.31
2022-10-12T07:30:26.132Z,8.47
2022-10-12T07:32:55.334Z,8.61
2022-10-12T07:35:23.079Z,8.75
2022-10-12T07:37:52.132Z,8.89
2022-10-12T07:40:19.871Z,9.03
2022-10-12T07:43:11.895Z,9.14
2022-10-12T07:45:35.324Z,9.19
2022-10-12T07:48:03.060Z,9.25
2022-10-12T07:50:30.693Z,9.28
2022-10-12T07:53:00.115Z,9.35
2022-10-12T07:55:27.899Z,9.42
2022-10-12T07:57:55.594Z,9.53
2022-10-12T08:00:23.506Z,9.61
2022-10-12T08:02:51.254Z,9.68
2022-10-12T08:05:21.169Z,9.74
2022-10-12T08:07:49.642Z,9.76
2022-10-12T08:10:21.928Z,9.77
2022-10-12T08:12:52.169Z,9.76
2022-10-12T08:15:20.629Z,9.78
2022-10-12T08:17:48.407Z,9.81
2022-10-12T08:20:16.219Z,9.84
2022-10-12T08:22:43.897Z,9.83
2022-10-12T08:25:11.587Z,9.89
2022-10-12T08:27:40.800Z,9.94
2022-10-12T08:30:09.919Z,10.00
2022-10-12T08:32:37.794Z,10.08
2022-10-12T08:35:06.725Z,10.18
2022-10-12T08:37:34.520Z,10.28
2022-10-12T08:40:03.506Z,10.36
2022-10-12T08:42:41.622Z,10.42
2022-10-12T08:45:30.908Z,10.45
2022-10-12T08:48:03.410Z,10.49
2022-10-12T08:50:49.004Z,10.58
2022-10-12T08:53:22.823Z,10.69
2022-10-12T08:55:52.583Z,10.81
2022-10-12T08:58:22.475Z,10.95
2022-10-12T09:00:56.239Z,11.04
2022-10-12T09:03:44.116Z,11.14
2022-10-12T09:06:15.193Z,11.22
2022-10-12T09:08:56.006Z,11.33
2022-10-12T09:11:51.634Z,11.48
2022-10-12T09:14:23.309Z,11.60
2022-10-12T09:16:56.388Z,11.70
2022-10-12T09:19:31.435Z,11.73
2022-10-12T09:21:59.231Z,11.82
2022-10-12T09:24:32.168Z,11.90
2022-10-12T09:27:01.554Z,11.98
2022-10-12T09:29:32.013Z,12.06
2022-10-12T09:32:27.856Z,12.14
2022-10-12T09:34:57.273Z,12.23
2022-10-12T09:37:28.513Z,12.26
2022-10-12T09:39:56.996Z,12.32
2022-10-12T09:42:24.695Z,12.40
2022-10-12T09:44:58.020Z,12.50
2022-10-12T09:47:29.546Z,12.58
2022-10-12T09:49:59.420Z,12.66
2022-10-12T09:52:30.852Z,12.76
2022-10-12T09:55:03.663Z,12.82
2022-10-12T09:57:36.897Z,12.80
2022-10-12T10:00:23.684Z,12.76
2022-10-12T10:02:53.924Z,12.75
2022-10-12T10:05:26.495Z,12.78
2022-10-12T10:07:54.132Z,12.83
2022-10-12T10:10:29.388Z,12.90
2022-10-12T10:13:01.276Z,12.99
2022-10-12T10:15:31.503Z,13.06
2022-10-12T10:18:03.010Z,13.12
2022-10-12T10:20:34.261Z,13.16
2022-10-12T10:23:05.073Z,13.25
2022-10-12T10:25:34.003Z,13.32
2022-10-12T10:28:21.115Z,13.38
2022-10-12T10:30:57.564Z,13.45
2022-10-12T10:33:26.998Z,13.55
2022-10-12T10:36:01.565Z,13.58
2022-10-12T10:38:31.553Z,13.61
2022-10-12T10:41:07.807Z,13.67
2022-10-12T10:43:36.614Z,13.75
2022-10-12T10:46:05.565Z,13.83
2022-10-12T10:48:53.148Z,13.90
2022-10-12T10:51:21.187Z,13.90
2022-10-12T10:53:50.145Z,13.92
2022-10-12T10:56:22.823Z,13.95
2022-10-12T10:58:53.263Z,13.96
2022-10-12T11:01:25.998Z,13.99
2022-10-12T11:04:01.972Z,14.04
2022-10-12T11:06:36.302Z,14.15
2022-10-12T11:09:11.568Z,14.25
2022-10-12T11:11:41.291Z,14.33
2022-10-12T11:14:16.203Z,14.40
2022-10-12T11:16:52.544Z,14.50
2022-10-12T11:19:31.286Z,14.56
2022-10-12T11:22:03.892Z,14.57
2022-10-12T11:24:37.318Z,14.55
2022-10-12T11:27:11.589Z,14.48
2022-10-12T11:29:40.049Z,14.45
2022-10-12T11:32:14.919Z,14.47
2022-10-12T11:34:50.705Z,14.50
2022-10-12T11:37:21.927Z,14.51
2022-10-12T11:39:53.614Z,14.56
2022-10-12T11:42:29.677Z,14.61
2022-10-12T11:45:00.284Z,14.64
2022-10-12T11:47:35.644Z,14.73
2022-10-12T11:50:08.593Z,14.82
2022-10-12T11:52:41.902Z,14.91
2022-10-12T11:55:27.994Z,14.98
2022-10-12T11:57:59.700Z,15.08
2022-10-12T12:00:36.318Z,15.20
2022-10-12T12:03:17.468Z,15.26
2022-10-12T12:05:46.512Z,15.34
2022-10-12T12:08:23.170Z,15.44
2022-10-12T12:11:05.424Z,15.56
2022-10-12T12:13:33.277Z,15.65
2022-10-12T12:16:34.860Z,15.80
2022-10-12T12:19:29.239Z,15.87
2022-10-12T12:22:18.105Z,15.84
2022-10-12T12:24:54.779Z,15.77
2022-10-12T12:27:29.594Z,15.70
2022-10-12T12:29:58.225Z,15.67
2022-10-12T12:32:27.931Z,15.70
2022-10-12T12:35:00.669Z,15.70
2022-10-12T12:37:34.923Z,15.71
2022-10-12T12:40:05.473Z,15.68
2022-10-12T12:42:34.281Z,15.68
2022-10-12T12:45:42.450Z,15.65
2022-10-12T12:48:11.600Z,15.64
2022-10-12T12:50:41.657Z,15.67
2022-10-12T12:53:15.618Z,15.77
2022-10-12T12:56:03.731Z,15.87
2022-10-12T12:59:06.779Z,15.96
2022-10-12T13:01:45.231Z,15.98
2022-10-12T13:04:35.631Z,15.97
2022-10-12T13:07:25.139Z,15.98
2022-10-12T13:10:09.096Z,15.91
2022-10-12T13:12:59.070Z,15.95
2022-10-12T13:15:43.787Z,16.05
2022-10-12T13:18:52.968Z,16.09
2022-10-12T13:21:25.923Z,16.08
2022-10-12T13:24:02.205Z,16.00
2022-10-12T13:26:32.127Z,15.97
2022-10-12T13:29:02.366Z,15.97
2022-10-12T13:31:36.964Z,15.94
2022-10-12T13:34:13.299Z,15.94
2022-10-12T13:36:53.957Z,15.90
2022-10-12T13:39:23.313Z,15.90
2022-10-12T13:41:54.579Z,15.90
2022-10-12T13:44:26.354Z,15.90
2022-10-12T13:46:56.620Z,15.91
2022-10-12T13:49:26.486Z,15.96
2022-10-12T13:51:57.669Z,15.95
2022-10-12T13:54:26.680Z,15.94
2022-10-12T13:56:57.811Z,15.89
2022-10-12T13:59:27.798Z,15.86
2022-10-12T14:01:57.952Z,15.85
2022-10-12T14:04:30.124Z,15.82
2022-10-12T14:07:02.223Z,15.78
2022-10-12T14:09:40.354Z,15.78
2022-10-12T14:12:09.610Z,15.77
2022-10-12T14:14:39.723Z,15.74
2022-10-12T14:17:07.862Z,15.76
2022-10-12T14:19:44.999Z,15.74
2022-10-12T14:22:21.523Z,15.76
2022-10-12T14:24:49.693Z,15.78
2022-10-12T14:27:24.937Z,15.82
2022-10-12T14:29:57.295Z,15.84
2022-10-12T14:32:44.186Z,15.90
2022-10-12T14:35:25.535Z,15.93
2022-10-12T14:37:56.596Z,15.96
2022-10-12T14:40:34.547Z,15.97
2022-10-12T14:43:05.745Z,15.98
2022-10-12T14:45:34.798Z,15.99
2022-10-12T14:48:03.312Z,16.00
2022-10-12T14:50:32.909Z,15.99
2022-10-12T14:53:07.406Z,15.98
2022-10-12T14:55:35.648Z,15.96
2022-10-12T14:58:03.634Z,15.96
2022-10-12T15:00:33.178Z,15.99
2022-10-12T15:03:01.858Z,16.00
2022-10-12T15:05:31.751Z,16.05
2022-10-12T15:08:00.543Z,16.09
2022-10-12T15:10:30.061Z,16.10
2022-10-12T15:12:57.940Z,16.11
2022-10-12T15:15:34.248Z,16.08
2022-10-12T15:18:02.561Z,16.09
2022-10-12T15:20:32.235Z,16.08
2022-10-12T15:23:00.797Z,16.04
2022-10-12T15:25:40.370Z,15.98
2022-10-12T15:28:08.143Z,15.95
2022-10-12T15:30:47.493Z,15.88
2022-10-12T15:33:20.102Z,15.79
2022-10-12T15:35:47.820Z,15.72
2022-10-12T15:38:15.511Z,15.69
2022-10-12T15:40:46.039Z,15.65
2022-10-12T15:43:14.179Z,15.65
2022-10-12T15:45:42.330Z,15.64
2022-10-12T15:48:11.098Z,15.63
2022-10-12T15:50:41.811Z,15.64
2022-10-12T15:53:11.422Z,15.62
2022-10-12T15:55:39.265Z,15.58
2022-10-12T15:58:08.388Z,15.55
2022-10-12T16:00:36.189Z,15.50
2022-10-12T16:03:04.015Z,15.44
2022-10-12T16:05:33.631Z,15.41
2022-10-12T16:08:02.500Z,15.37
2022-10-12T16:10:32.254Z,15.35
2022-10-12T16:12:59.936Z,15.33
2022-10-12T16:15:32.043Z,15.30
2022-10-12T16:18:00.330Z,15.29
2022-10-12T16:20:29.865Z,15.29
2022-10-12T16:22:57.761Z,15.27
2022-10-12T16:25:26.322Z,15.23
2022-10-12T16:27:58.265Z,15.19
2022-10-12T16:30:27.191Z,15.18
2022-10-12T16:32:56.275Z,15.14
2022-10-12T16:35:24.195Z,15.11
2022-10-12T16:37:51.851Z,15.07
2022-10-12T16:40:19.832Z,15.02
2022-10-12T16:42:54.254Z,14.97
2022-10-12T16:45:25.596Z,14.94
2022-10-12T16:47:54.018Z,14.88
2022-10-12T16:50:25.041Z,14.84
2022-10-12T16:52:53.231Z,14.79
2022-10-12T16:55:21.653Z,14.72
2022-10-12T16:57:49.313Z,14.66
2022-10-12T17:00:20.107Z,14.59
2022-10-12T17:02:48.047Z,14.54
2022-10-12T17:05:16.030Z,14.47
2022-10-12T17:07:45.018Z,14.42
2022-10-12T17:10:12.674Z,14.38
2022-10-12T17:12:40.306Z,14.33
2022-10-12T17:15:09.090Z,14.29
2022-10-12T17:17:36.803Z,14.25
2022-10-12T17:20:04.908Z,14.22
2022-10-12T17:22:32.550Z,14.17
2022-10-12T17:25:01.637Z,14.12
2022-10-12T17:27:32.096Z,14.07
2022-10-12T17:30:00.402Z,14.01
2022-10-12T17:32:28.130Z,13.94
2022-10-12T17:34:55.786Z,13.89
2022-10-12T17:37:25.564Z,13.83
2022-10-12T17:39:53.352Z,13.81
2022-10-12T17:42:23.083Z,13.77
2022-10-12T17:44:50.759Z,13.73
2022-10-12T17:47:18.684Z,13.70
2022-10-12T17:49:49.069Z,13.66
2022-10-12T17:52:17.090Z,13.64
2022-10-12T17:54:45.167Z,13.62
2022-10-12T17:57:12.792Z,13.57
2022-10-12T17:59:46.027Z,13.53
2022-10-12T18:02:13.638Z,13.48
2022-10-12T18:04:41.352Z,13.44
2022-10-12T18:07:09.119Z,13.37
2022-10-12T18:09:36.856Z,13.30
2022-10-12T18:12:04.662Z,13.23
2022-10-12T18:14:32.364Z,13.16
2022-10-12T18:17:01.450Z,13.11
2022-10-12T18:19:29.094Z,13.06
2022-10-12T18:21:56.689Z,12.97
2022-10-12T18:24:25.028Z,12.91
2022-10-12T18:26:52.785Z,12.85
2022-10-12T18:29:20.935Z,12.79
2022-10-12T18:31:48.708Z,12.74
2022-10-12T18:34:17.688Z,12.70
2022-10-12T18:36:45.308Z,12.68
2022-10-12T18:39:12.961Z,12.64
2022-10-12T18:41:40.668Z,12.64
2022-10-12T18:44:09.093Z,12.63
2022-10-12T18:46:37.510Z,12.61
2022-10-12T18:49:08.106Z,12.59
2022-10-12T18:51:39.133Z,12.55
2022-10-12T18:54:07.770Z,12.52
2022-10-12T18:56:36.898Z,12.48
2022-10-12T18:59:05.070Z,12.42
2022-10-12T19:01:33.377Z,12.37
2022-10-12T19:04:03.200Z,12.33
2022-10-12T19:06:32.917Z,12.27
2022-10-12T19:09:02.281Z,12.24
2022-10-12T19:11:31.015Z,12.15
2022-10-12T19:14:00.462Z,12.09
2022-10-12T19:16:29.814Z,12.02
2022-10-12T19:18:58.692Z,11.98
2022-10-12T19:21:26.506Z,11.94
2022-10-12T19:23:54.397Z,11.92
2022-10-12T19:26:25.414Z,11.87
2022-10-12T19:28:55.250Z,11.83
2022-10-12T19:31:24.894Z,11.79
2022-10-12T19:33:55.088Z,11.71
2022-10-12T19:36:22.695Z,11.65
2022-10-12T19:38:50.498Z,11.64
2022-10-12T19:41:18.257Z,11.60
2022-10-12T19:43:47.301Z,11.56
2022-10-12T19:46:15.137Z,11.53
2022-10-12T19:48:43.218Z,11.51
2022-10-12T19:51:13.326Z,11.50
2022-10-12T19:53:42.160Z,11.49
2022-10-12T19:56:13.698Z,11.45
2022-10-12T19:58:43.204Z,11.43
2022-10-12T20:01:14.947Z,11.41
2022-10-12T20:03:47.573Z,11.38
2022-10-12T20:06:15.821Z,11.36
2022-10-12T20:08:45.490Z,11.34
2022-10-12T20:11:24.555Z,11.32
2022-10-12T20:13:53.155Z,11.31
2022-10-12T20:16:22.863Z,11.29
2022-10-12T20:18:51.229Z,11.25
2022-10-12T20:21:21.360Z,11.23
2022-10-12T20:23:49.897Z,11.19
2022-10-12T20:26:20.505Z,11.14
2022-10-12T20:28:48.694Z,11.12
2022-10-12T20:31:18.501Z,11.11
2022-10-12T20:33:53.088Z,11.08
2022-10-12T20:36:23.181Z,11.03
2022-10-12T20:38:52.544Z,10.97
2022-10-12T20:41:34.922Z,10.95
2022-10-12T20:44:02.843Z,10.91
2022-10-12T20:46:31.088Z,10.90
2022-10-12T20:49:02.181Z,10.88
2022-10-12T20:51:32.584Z,10.83
2022-10-12T20:54:01.420Z,10.81
2022-10-12T20:56:30.031Z,10.81
2022-10-12T20:58:57.730Z,10.76
2022-10-12T21:01:26.370Z,10.74
2022-10-12T21:03:54.368Z,10.71
2022-10-12T21:06:24.032Z,10.68
2022-10-12T21:08:52.772Z,10.63
2022-10-12T21:11:20.563Z,10.64
2022-10-12T21:13:48.200Z,10.61
2022-10-12T21:16:16.038Z,10.59
2022-10-12T21:18:44.030Z,10.58
2022-10-12T21:21:13.774Z,10.58
2022-10-12T21:23:43.718Z,10.56
2022-10-12T21:26:13.118Z,10.57
2022-10-12T21:28:41.111Z,10.53
2022-10-12T21:31:08.913Z,10.48
2022-10-12T21:33:37.651Z,10.48
2022-10-12T21:36:09.631Z,10.47
2022-10-12T21:38:37.300Z,10.45
2022-10-12T21:41:07.796Z,10.43
2022-10-12T21:43:36.247Z,10.39
2022-10-12T21:46:04.890Z,10.36
2022-10-12T21:48:33.906Z,10.34
2022-10-12T21:51:02.671Z,10.32
2022-10-12T21:53:31.146Z,10.30
2022-10-12T21:55:59.096Z,10.29
2022-10-12T21:58:28.165Z,10.29
2022-10-12T22:01:05.110Z,10.29
2022-10-12T22:03:32.830Z,10.32
2022-10-12T22:06:00.466Z,10.33
2022-10-12T22:08:28.265Z,10.34
2022-10-12T22:10:56.746Z,10.36
2022-10-12T22:13:24.620Z,10.39
2022-10-12T22:16:02.993Z,10.43
2022-10-12T22:18:30.682Z,10.45
2022-10-12T22:20:58.575Z,10.47
2022-10-12T22:23:26.267Z,10.51
2022-10-12T22:25:53.915Z,10.50
2022-10-12T22:28:21.647Z,10.51
2022-10-12T22:30:49.303Z,10.53
2022-10-12T22:33:18.353Z,10.55
2022-10-12T22:35:53.501Z,10.55
2022-10-12T22:38:21.204Z,10.53
2022-10-12T22:40:55.700Z,10.51
2022-10-12T22:43:23.492Z,10.55
2022-10-12T22:45:51.558Z,10.58
2022-10-12T22:48:20.920Z,10.59
2022-10-12T22:50:49.649Z,10.58
2022-10-12T22:53:18.848Z,10.56
2022-10-12T22:55:46.910Z,10.55
2022-10-12T22:58:14.622Z,10.57
2022-10-12T23:00:42.728Z,10.59
2022-10-12T23:03:10.470Z,10.60
2022-10-12T23:05:39.506Z,10.65
2022-10-12T23:08:07.168Z,10.72
2022-10-12T23:10:34.840Z,10.80
2022-10-12T23:13:02.546Z,10.86
2022-10-12T23:15:30.235Z,10.93
2022-10-12T23:17:59.272Z,11.00
2022-10-12T23:20:26.997Z,11.06
2022-10-12T23:22:56.026Z,11.11
2022-10-12T23:25:23.771Z,11.13
2022-10-12T23:27:51.435Z,11.17
2022-10-12T23:30:19.082Z,11.19
2022-10-12T23:32:46.777Z,11.21
2022-10-12T23:35:14.480Z,11.21
2022-10-12T23:37:44.257Z,11.23
2022-10-12T23:40:13.831Z,11.25
2022-10-12T23:42:41.537Z,11.28
2022-10-12T23:45:09.684Z,11.27
2022-10-12T23:47:37.382Z,11.27
2022-10-12T23:50:05.483Z,11.27
2022-10-12T23:52:33.109Z,11.27
2022-10-12T23:55:00.789Z,11.28
2022-10-12T23:57:46.169Z,11.25
